createdAt,value
2022-10-01T10:34:23.276Z,9.87
2022-10-01T10:35:26.119Z,9.90
2022-10-01T10:36:31.000Z,9.89
2022-10-01T10:37:36.834Z,9.91
2022-10-01T10:38:38.305Z,9.89
2022-10-01T10:47:46.322Z,10.29
2022-10-01T10:48:58.568Z,10.61
2022-10-01T10:50:06.487Z,10.60
2022-10-01T10:51:08.084Z,10.79
2022-10-01T10:52:30.597Z,10.90
2022-10-01T10:53:45.936Z,11.30
2022-10-01T10:54:50.234Z,11.11
2022-10-01T10:56:02.424Z,11.15
2022-10-01T10:57:31.443Z,11.11
2022-10-01T10:58:37.939Z,11.04
2022-10-01T10:59:39.347Z,10.82
2022-10-01T11:00:52.427Z,10.57
2022-10-01T11:01:54.070Z,10.51
2022-10-01T11:30:41.100Z,10.10
2022-10-01T11:31:52.252Z,10.15
2022-10-01T12:07:35.983Z,10.84
2022-10-01T12:08:40.198Z,10.84
2022-10-01T12:09:56.925Z,10.94
2022-10-01T12:30:23.093Z,11.34
2022-10-01T12:31:30.123Z,11.41
2022-10-01T12:48:58.089Z,11.48
2022-10-01T12:50:07.441Z,11.69
2022-10-01T12:51:30.121Z,11.88
2022-10-01T13:01:31.075Z,12.64
2022-10-01T13:02:35.817Z,12.63
2022-10-01T13:04:11.030Z,12.59
2022-10-01T13:05:24.403Z,12.72
2022-10-01T13:06:25.798Z,12.87
2022-10-01T13:07:32.890Z,12.99
2022-10-01T13:08:38.080Z,12.99
2022-10-01T13:15:06.727Z,13.50
2022-10-01T13:16:18.920Z,13.63
2022-10-01T13:17:26.246Z,13.66
2022-10-01T13:18:43.029Z,13.54
2022-10-01T13:19:44.652Z,13.50
2022-10-01T13:21:14.718Z,14.11
2022-10-01T13:22:22.069Z,14.43
2022-10-01T13:23:47.873Z,15.07
2022-10-01T13:25:08.427Z,15.41
2022-10-01T13:26:32.321Z,15.27
2022-10-01T13:27:47.203Z,14.53
2022-10-01T13:29:01.629Z,14.20
2022-10-01T13:30:26.405Z,13.93
2022-10-01T13:31:37.126Z,14.36
2022-10-01T13:33:01.108Z,14.64
2022-10-01T13:39:04.713Z,13.92
2022-10-01T13:40:21.490Z,13.93
2022-10-01T13:41:27.223Z,13.97
2022-10-01T13:42:43.885Z,13.74
2022-10-01T13:43:58.177Z,13.68
2022-10-01T13:45:04.716Z,13.60
2022-10-01T13:46:09.155Z,13.53
2022-10-01T13:52:49.620Z,13.61
2022-10-01T13:54:00.628Z,13.59
2022-10-01T13:55:02.433Z,13.54
2022-10-01T13:56:05.414Z,13.71
2022-10-01T13:57:10.733Z,13.71
2022-10-01T13:58:34.041Z,13.57
2022-10-01T13:59:37.653Z,13.72
2022-10-01T14:00:48.525Z,13.87
2022-10-01T14:01:50.009Z,13.90
2022-10-01T14:03:21.306Z,13.98
2022-10-01T14:04:33.148Z,14.10
2022-10-01T14:14:42.913Z,13.78
2022-10-01T14:15:59.933Z,13.84
2022-10-01T14:17:01.692Z,13.73
2022-10-01T14:18:16.852Z,13.61
2022-10-01T14:28:09.888Z,13.48
2022-10-01T14:29:44.857Z,13.52
2022-10-01T14:31:19.810Z,13.57
2022-10-01T14:32:58.670Z,13.61
2022-10-01T14:39:07.619Z,14.07
2022-10-01T14:40:23.646Z,14.72
2022-10-01T14:41:26.072Z,14.99
2022-10-01T14:42:27.510Z,14.88
2022-10-01T14:43:31.366Z,14.63
2022-10-01T14:44:46.721Z,14.27
2022-10-01T14:46:05.986Z,13.92
2022-10-01T14:47:19.769Z,13.82
2022-10-01T15:02:35.563Z,13.18
2022-10-01T15:03:38.810Z,13.21
2022-10-01T15:04:46.115Z,13.07
2022-10-01T15:16:10.487Z,13.01
2022-10-01T15:17:21.169Z,13.06
2022-10-01T15:18:22.897Z,13.05
2022-10-01T15:41:42.678Z,12.97
2022-10-01T15:43:11.720Z,12.98
2022-10-01T15:57:07.370Z,14.23
2022-10-01T15:58:31.274Z,14.51
2022-10-01T15:59:33.972Z,14.57
2022-10-01T16:00:52.908Z,14.56
2022-10-01T16:01:54.531Z,14.28
2022-10-01T16:02:57.881Z,14.18
2022-10-01T16:04:09.179Z,14.01
